Time;durP1;ratioP1;P1;durP2;ratioP2;P2;SDS_P1;SDS_P2;PMS_P1;PMS_P2;Temp;Humidity;BMP_temperature;BMP_pressure;BME280_temperature;BME280_humidity;BME280_pressure;Samples;Min_cycle;Max_cycle;Signal;HPM_P1;HPM_P2
2022/01/29 00:00:18;;;;;;;3.40;0.60;;;3.50;99.90;;;;;;5077495;28;20032;-63
2022/01/29 00:02:44;;;;;;;3.25;0.70;;;3.50;99.90;;;;;;5059183;28;20035;-63
2022/01/29 00:05:10;;;;;;;3.72;0.88;;;3.50;99.90;;;;;;5077233;28;20103;-62
2022/01/29 00:07:38;;;;;;;5.10;0.70;;;3.60;99.90;;;;;;5076966;28;20086;-62
2022/01/29 00:10:05;;;;;;;5.35;0.47;;;3.60;99.90;;;;;;5077045;28;20048;-63
2022/01/29 00:12:31;;;;;;;1.90;0.52;;;3.60;99.90;;;;;;5059472;28;20052;-62
2022/01/29 00:15:00;;;;;;;5.10;0.40;;;3.60;99.90;;;;;;5076942;28;20405;-63
2022/01/29 00:17:26;;;;;;;;;;;3.60;99.90;;;;;;5077390;28;20050;-63
2022/01/29 00:19:52;;;;;;;3.25;0.70;;;3.60;99.90;;;;;;5058546;28;19969;-63
2022/01/29 00:22:17;;;;;;;2.70;0.77;;;3.60;99.90;;;;;;5076690;28;20055;-63
2022/01/29 00:24:43;;;;;;;5.20;0.70;;;3.60;99.90;;;;;;5076685;28;20036;-63
2022/01/29 00:27:10;;;;;;;4.68;0.60;;;3.60;99.90;;;;;;5076422;28;20029;-63
2022/01/29 00:29:42;;;;;;;3.92;0.73;;;3.60;99.90;;;;;;5058675;28;20036;-63
2022/01/29 00:32:09;;;;;;;4.63;1.20;;;3.60;99.90;;;;;;5076721;28;20024;-64
2022/01/29 00:34:35;;;;;;;4.25;0.60;;;3.80;99.90;;;;;;5076928;28;20031;-62
2022/01/29 00:37:01;;;;;;;9.07;1.15;;;3.50;99.90;;;;;;5058619;28;20438;-63
2022/01/29 00:39:29;;;;;;;4.88;0.70;;;3.40;99.90;;;;;;5076740;28;20020;-63
2022/01/29 00:41:55;;;;;;;7.00;0.70;;;3.30;99.90;;;;;;5058859;28;20024;-63
2022/01/29 00:44:21;;;;;;;5.43;0.70;;;3.30;99.90;;;;;;5076626;28;20052;-63
2022/01/29 00:46:46;;;;;;;3.05;0.47;;;3.30;99.90;;;;;;5076767;28;20020;-63
2022/01/29 00:49:13;;;;;;;3.33;0.90;;;3.30;99.90;;;;;;5076742;28;20437;-63
2022/01/29 00:51:39;;;;;;;7.00;1.20;;;3.20;99.90;;;;;;5076559;28;20020;-63
2022/01/29 00:54:05;;;;;;;3.03;0.63;;;3.20;99.90;;;;;;5058550;28;20162;-63
2022/01/29 00:56:31;;;;;;;6.55;1.23;;;3.10;99.90;;;;;;5076505;28;20028;-62
2022/01/29 00:58:57;;;;;;;7.47;1.08;;;3.10;99.90;;;;;;5075949;28;20517;-62
2022/01/29 01:01:23;;;;;;;7.28;0.70;;;3.30;99.90;;;;;;5075516;28;20103;-62
2022/01/29 01:03:49;;;;;;;7.30;0.77;;;3.20;99.90;;;;;;5076101;28;20150;-62
2022/01/29 01:06:15;;;;;;;1.77;0.43;;;3.10;99.90;;;;;;5075743;28;20024;-63
2022/01/29 01:08:40;;;;;;;1.45;0.30;;;3.00;99.90;;;;;;5076016;28;20024;-62
2022/01/29 01:11:06;;;;;;;5.70;0.80;;;2.90;99.90;;;;;;5092469;28;20055;-63
2022/01/29 01:13:32;;;;;;;5.97;0.50;;;2.90;99.90;;;;;;5096497;28;20111;-62
2022/01/29 01:15:58;;;;;;;3.58;0.90;;;2.90;99.90;;;;;;5094770;28;20070;-62
2022/01/29 01:18:24;;;;;;;8.43;0.95;;;2.80;99.90;;;;;;5095979;28;20020;-62
2022/01/29 01:20:49;;;;;;;5.05;0.65;;;2.80;99.90;;;;;;5095613;28;20103;-62
2022/01/29 01:23:15;;;;;;;11.68;0.80;;;2.70;99.90;;;;;;5095573;28;20047;-63
2022/01/29 01:25:43;;;;;;;11.40;1.00;;;2.80;99.90;;;;;;5095647;28;20020;-63
2022/01/29 01:28:09;;;;;;;2.63;0.70;;;2.80;99.90;;;;;;5095572;28;20341;-63
2022/01/29 01:30:36;;;;;;;7.88;1.38;;;2.90;99.90;;;;;;5094439;28;20032;-63
2022/01/29 01:33:03;;;;;;;3.70;0.85;;;2.80;99.90;;;;;;5095716;28;20069;-63
2022/01/29 01:35:34;;;;;;;3.97;1.40;;;2.80;99.90;;;;;;5094301;28;20111;-63
2022/01/29 01:38:13;;;;;;;7.57;1.30;;;2.80;99.90;;;;;;5095451;28;20536;-63
2022/01/29 01:40:41;;;;;;;3.40;1.35;;;2.80;99.90;;;;;;5095736;28;20020;-63
2022/01/29 01:43:07;;;;;;;6.10;1.42;;;2.70;99.90;;;;;;5094245;28;20455;-62
2022/01/29 01:45:33;;;;;;;4.28;1.33;;;2.70;99.90;;;;;;5094360;28;20103;-62
2022/01/29 01:48:03;;;;;;;3.72;1.70;;;2.60;99.90;;;;;;5095668;28;20027;-63
2022/01/29 01:50:28;;;;;;;3.78;1.00;;;2.50;99.90;;;;;;5093857;28;20028;-63
2022/01/29 01:52:54;;;;;;;6.25;1.30;;;2.40;99.90;;;;;;5095423;28;20032;-62
2022/01/29 01:55:20;;;;;;;4.25;1.30;;;2.40;99.90;;;;;;5094063;28;20020;-63
2022/01/29 01:57:46;;;;;;;4.28;1.77;;;2.40;99.90;;;;;;5095710;28;20023;-62
2022/01/29 02:00:12;;;;;;;7.72;1.60;;;2.40;99.90;;;;;;5095150;28;20027;-62
2022/01/29 02:02:37;;;;;;;7.40;1.60;;;2.30;99.90;;;;;;5093980;28;20451;-62
2022/01/29 02:05:07;;;;;;;9.32;1.30;;;2.30;99.90;;;;;;5094882;28;20052;-63
2022/01/29 02:07:33;;;;;;;4.70;2.03;;;2.20;99.90;;;;;;5095488;28;20047;-63
2022/01/29 02:09:59;;;;;;;4.18;1.50;;;2.60;99.90;;;;;;5085007;28;20052;-63
2022/01/29 02:12:28;;;;;;;6.60;2.00;;;2.20;99.90;;;;;;5073979;28;20100;-62
2022/01/29 02:14:55;;;;;;;4.95;1.02;;;3.20;99.90;;;;;;5057094;28;20090;-63
2022/01/29 02:17:21;;;;;;;7.32;1.50;;;2.00;99.90;;;;;;5074376;28;20364;-62
2022/01/29 02:19:47;;;;;;;4.32;1.77;;;2.00;99.90;;;;;;5074770;28;20025;-62
2022/01/29 02:22:12;;;;;;;6.38;1.67;;;1.90;99.90;;;;;;5040022;28;20037;-63
2022/01/29 02:24:38;;;;;;;9.27;1.52;;;1.80;99.90;;;;;;5074697;28;20508;-63
2022/01/29 02:27:04;;;;;;;7.60;2.08;;;1.80;99.90;;;;;;5074202;28;20107;-63
2022/01/29 02:29:33;;;;;;;6.43;1.35;;;1.70;99.90;;;;;;5074467;28;20021;-63
2022/01/29 02:31:59;;;;;;;5.35;1.70;;;1.70;99.90;;;;;;5074418;28;20476;-63
2022/01/29 02:34:24;;;;;;;10.80;1.85;;;1.70;99.90;;;;;;5074390;28;20017;-62
2022/01/29 02:36:52;;;;;;;5.30;1.50;;;1.70;99.90;;;;;;5074321;28;20356;-62
2022/01/29 02:39:19;;;;;;;4.25;1.27;;;1.60;99.90;;;;;;5074208;28;20024;-63
2022/01/29 02:41:45;;;;;;;9.10;1.83;;;1.70;99.90;;;;;;5074223;28;20020;-63
2022/01/29 02:44:19;;;;;;;6.50;1.42;;;1.60;99.90;;;;;;5074204;28;20021;-63
2022/01/29 02:49:21;;;;;;;6.47;1.75;;;1.60;99.90;;;;;;5074188;28;20398;-62
2022/01/29 02:51:49;;;;;;;3.90;1.63;;;1.90;99.90;;;;;;5056511;28;20086;-63
2022/01/29 02:57:00;;;;;;;10.95;1.75;;;1.60;99.90;;;;;;5074374;28;20036;-62
2022/01/29 02:59:26;;;;;;;4.07;1.33;;;1.70;99.90;;;;;;5073628;28;20020;-62
2022/01/29 03:02:10;;;;;;;6.47;1.42;;;2.20;99.90;;;;;;5056126;28;20032;-63
2022/01/29 03:04:35;;;;;;;6.97;1.83;;;1.90;99.90;;;;;;5056290;28;20398;-62
2022/01/29 03:07:01;;;;;;;3.45;1.42;;;1.90;99.90;;;;;;5073971;28;20073;-62
2022/01/29 03:09:27;;;;;;;7.60;1.45;;;1.80;99.90;;;;;;5073832;28;20086;-62
2022/01/29 03:11:56;;;;;;;8.35;2.00;;;1.70;99.90;;;;;;5073888;28;20093;-62
2022/01/29 03:14:22;;;;;;;10.98;1.58;;;1.70;99.90;;;;;;5073867;28;20017;-63
2022/01/29 03:16:47;;;;;;;4.38;1.83;;;1.70;99.90;;;;;;5056045;28;20368;-62
2022/01/29 03:19:13;;;;;;;8.73;1.80;;;1.60;99.90;;;;;;5073875;28;20027;-63
2022/01/29 03:21:39;;;;;;;3.50;1.90;;;1.70;99.90;;;;;;5074213;28;20024;-62
2022/01/29 03:24:05;;;;;;;8.85;2.03;;;2.10;99.90;;;;;;5076057;28;20104;-63
2022/01/29 03:26:30;;;;;;;3.40;1.65;;;1.50;99.90;;;;;;5080679;28;20029;-63
2022/01/29 03:28:56;;;;;;;4.43;1.85;;;1.50;99.90;;;;;;5080108;28;20051;-63
2022/01/29 03:31:26;;;;;;;6.05;1.88;;;1.40;99.90;;;;;;5080592;28;20025;-63
2022/01/29 03:33:55;;;;;;;7.15;1.80;;;1.40;99.90;;;;;;5062387;28;20029;-62
2022/01/29 03:36:21;;;;;;;;;;;1.40;99.90;;;;;;5080673;28;20420;-62
2022/01/29 03:38:46;;;;;;;5.38;1.70;;;1.40;99.90;;;;;;5080046;28;19943;-63
2022/01/29 03:41:13;;;;;;;5.97;2.30;;;1.40;99.90;;;;;;5080333;28;20020;-63
2022/01/29 03:43:46;;;;;;;4.80;2.42;;;2.30;99.90;;;;;;5080258;28;20020;-62
2022/01/29 03:46:13;;;;;;;6.75;2.03;;;1.30;99.90;;;;;;5080038;28;20023;-62
2022/01/29 03:48:40;;;;;;;4.38;2.00;;;1.40;99.90;;;;;;5062249;28;20094;-63
2022/01/29 03:51:06;;;;;;;6.55;2.47;;;1.80;99.90;;;;;;5079948;28;20035;-62
2022/01/29 03:53:32;;;;;;;5.78;2.38;;;2.10;99.90;;;;;;5079919;28;20028;-63
2022/01/29 03:55:58;;;;;;;8.32;2.60;;;1.40;99.90;;;;;;5080156;28;20111;-63
2022/01/29 03:58:23;;;;;;;9.10;3.15;;;2.60;99.90;;;;;;5080110;28;20372;-62
2022/01/29 04:00:49;;;;;;;6.10;2.33;;;1.60;99.90;;;;;;5080147;28;20024;-63
2022/01/29 04:03:14;;;;;;;6.90;2.30;;;1.60;99.90;;;;;;5079769;28;20032;-63
2022/01/29 04:05:40;;;;;;;9.52;3.00;;;1.70;99.90;;;;;;5080062;28;20024;-63
2022/01/29 04:08:25;;;;;;;9.75;2.70;;;1.70;99.90;;;;;;5062120;28;20023;-62
2022/01/29 04:10:52;;;;;;;8.30;3.22;;;1.80;99.90;;;;;;5092432;28;20047;-62
2022/01/29 04:13:21;;;;;;;3.97;2.47;;;1.80;99.90;;;;;;5100258;28;20020;-62
2022/01/29 04:15:47;;;;;;;9.15;2.92;;;3.80;99.90;;;;;;5100707;28;20020;-62
2022/01/29 04:18:13;;;;;;;9.93;3.15;;;1.80;99.90;;;;;;5098866;28;20027;-62
2022/01/29 04:20:38;;;;;;;7.20;3.05;;;1.90;99.90;;;;;;5100102;28;20097;-62
2022/01/29 04:23:08;;;;;;;8.65;2.70;;;3.00;99.90;;;;;;5099876;28;20375;-63
2022/01/29 04:25:34;;;;;;;5.75;2.70;;;1.90;99.90;;;;;;5099914;28;20063;-63
2022/01/29 04:28:01;;;;;;;9.45;3.53;;;1.90;99.90;;;;;;5099177;28;20371;-62
2022/01/29 04:30:31;;;;;;;12.80;3.30;;;2.00;99.90;;;;;;5100554;28;20023;-63
2022/01/29 04:35:24;;;;;;;10.75;3.00;;;1.90;99.90;;;;;;5098122;28;20048;-62
2022/01/29 04:37:50;;;;;;;13.70;3.58;;;2.10;99.90;;;;;;5096838;28;20415;-63
2022/01/29 04:40:16;;;;;;;10.73;3.72;;;1.90;99.90;;;;;;5096703;28;20495;-63
2022/01/29 04:42:42;;;;;;;7.03;3.13;;;1.90;99.90;;;;;;5096762;28;20107;-63
2022/01/29 04:45:08;;;;;;;7.93;3.65;;;1.90;99.90;;;;;;5096265;28;20103;-63
2022/01/29 04:47:33;;;;;;;12.18;3.90;;;2.00;99.90;;;;;;5095454;28;20033;-62
2022/01/29 04:49:59;;;;;;;11.18;3.63;;;2.00;99.90;;;;;;5096612;28;20024;-62
2022/01/29 04:52:25;;;;;;;11.98;3.28;;;2.00;99.90;;;;;;5096562;28;20020;-63
2022/01/29 04:54:50;;;;;;;8.85;3.05;;;2.00;99.90;;;;;;5096431;28;20031;-62
2022/01/29 04:57:16;;;;;;;7.47;3.47;;;2.00;99.90;;;;;;5096433;28;20072;-63
2022/01/29 04:59:42;;;;;;;14.35;3.80;;;2.00;99.90;;;;;;5096075;28;20072;-63
2022/01/29 05:02:07;;;;;;;14.13;4.22;;;2.10;99.90;;;;;;5095138;28;20028;-63
2022/01/29 05:04:33;;;;;;;12.50;3.50;;;2.20;99.90;;;;;;5096014;28;20036;-62
2022/01/29 05:06:58;;;;;;;9.43;4.22;;;2.10;99.90;;;;;;5096301;28;20023;-62
2022/01/29 05:09:24;;;;;;;6.80;3.17;;;2.10;99.90;;;;;;5094884;28;20122;-62
2022/01/29 05:11:52;;;;;;;14.52;4.28;;;2.10;99.90;;;;;;5094914;28;20027;-62
2022/01/29 05:14:29;;;;;;;11.30;4.18;;;2.60;99.90;;;;;;5096228;28;20024;-63
2022/01/29 05:27:44;;;;;;;11.48;5.03;;;2.30;99.90;;;;;;5095714;28;20469;-62
2022/01/29 05:30:10;;;;;;;10.85;3.75;;;2.40;99.90;;;;;;5095879;28;20056;-63
2022/01/29 05:32:36;;;;;;;10.25;3.80;;;2.30;99.90;;;;;;5095889;28;20024;-62
2022/01/29 05:35:01;;;;;;;8.55;4.07;;;2.40;99.90;;;;;;5095783;28;20077;-63
2022/01/29 05:37:27;;;;;;;10.32;3.97;;;2.40;99.90;;;;;;5096027;28;20362;-62
2022/01/29 05:39:53;;;;;;;11.13;3.78;;;2.60;99.90;;;;;;5094035;28;20032;-62
2022/01/29 05:42:18;;;;;;;8.40;4.20;;;2.40;99.90;;;;;;5095916;28;20098;-62
2022/01/29 05:44:44;;;;;;;5.88;3.50;;;2.40;99.90;;;;;;5095569;28;20070;-63
2022/01/29 05:47:09;;;;;;;10.88;4.00;;;2.40;99.90;;;;;;5095272;28;20016;-62
2022/01/29 05:49:35;;;;;;;11.73;4.22;;;2.40;99.90;;;;;;5095168;28;20024;-63
2022/01/29 05:52:01;;;;;;;7.60;4.82;;;2.40;99.90;;;;;;5095641;28;20099;-62
2022/01/29 05:54:26;;;;;;;10.52;4.28;;;2.40;99.90;;;;;;5095393;28;20040;-62
2022/01/29 05:56:52;;;;;;;15.27;5.70;;;2.40;99.90;;;;;;5095347;28;20043;-62
2022/01/29 05:59:18;;;;;;;17.98;4.40;;;2.40;99.90;;;;;;5095185;28;20028;-63
2022/01/29 06:01:43;;;;;;;11.85;4.78;;;2.40;99.90;;;;;;5095303;28;20020;-63
2022/01/29 06:04:09;;;;;;;8.85;4.32;;;2.40;99.90;;;;;;5095257;28;20024;-62
2022/01/29 06:06:35;;;;;;;12.45;4.85;;;2.40;99.90;;;;;;5094872;28;20020;-63
2022/01/29 06:09:04;;;;;;;14.60;4.68;;;2.40;99.90;;;;;;5093289;28;20016;-63
2022/01/29 06:11:33;;;;;;;7.93;4.32;;;2.40;99.90;;;;;;5074772;28;20029;-62
2022/01/29 06:13:59;;;;;;;12.50;4.90;;;2.50;99.90;;;;;;5056900;28;20024;-62
2022/01/29 06:16:24;;;;;;;9.60;4.75;;;2.50;99.90;;;;;;5056819;28;20074;-63
2022/01/29 06:18:50;;;;;;;12.13;4.70;;;2.50;99.90;;;;;;5056764;28;20024;-63
2022/01/29 06:21:34;;;;;;;8.88;4.90;;;2.50;99.90;;;;;;5056605;28;20031;-63
2022/01/29 06:24:02;;;;;;;12.43;5.43;;;2.50;99.90;;;;;;5074966;28;20039;-63
2022/01/29 06:26:27;;;;;;;14.10;5.95;;;2.50;99.90;;;;;;5074517;28;20108;-63
2022/01/29 06:28:53;;;;;;;12.48;4.60;;;2.50;99.90;;;;;;5056496;28;20111;-63
2022/01/29 06:31:19;;;;;;;11.27;4.25;;;2.50;99.90;;;;;;5074446;28;20055;-62
2022/01/29 06:33:44;;;;;;;8.27;4.63;;;2.60;99.90;;;;;;5074393;28;20020;-62
2022/01/29 06:36:10;;;;;;;11.98;4.93;;;2.60;99.90;;;;;;5056982;28;20016;-63
2022/01/29 06:38:36;;;;;;;10.38;5.20;;;2.60;99.90;;;;;;5056391;28;20020;-63
2022/01/29 06:41:02;;;;;;;10.02;4.68;;;2.60;99.90;;;;;;5074269;28;20345;-62
2022/01/29 06:43:28;;;;;;;13.80;4.82;;;2.70;99.90;;;;;;5074229;28;20029;-62
2022/01/29 06:45:54;;;;;;;8.98;4.25;;;2.60;99.90;;;;;;5056197;28;20025;-62
2022/01/29 06:48:20;;;;;;;15.63;4.90;;;2.60;99.90;;;;;;5074199;28;20444;-62
2022/01/29 06:50:46;;;;;;;11.90;4.70;;;2.60;99.90;;;;;;5056180;28;20040;-63
2022/01/29 06:53:12;;;;;;;11.05;4.95;;;2.70;99.90;;;;;;5074093;28;20021;-62
2022/01/29 06:55:38;;;;;;;13.40;4.75;;;2.70;99.90;;;;;;5056035;28;20023;-63
2022/01/29 06:58:04;;;;;;;12.55;5.53;;;2.70;99.90;;;;;;5073807;28;20102;-62
2022/01/29 07:00:30;;;;;;;11.50;4.78;;;2.80;99.90;;;;;;5073271;28;20112;-62
2022/01/29 07:02:55;;;;;;;15.20;5.05;;;2.90;99.90;;;;;;5074247;28;20025;-62
2022/01/29 07:05:21;;;;;;;10.23;4.50;;;2.90;99.90;;;;;;5073981;28;20029;-62
2022/01/29 07:07:47;;;;;;;12.13;4.82;;;2.90;99.90;;;;;;5074185;28;20024;-62
2022/01/29 07:10:12;;;;;;;9.70;5.00;;;2.90;99.90;;;;;;5074218;28;20079;-62
2022/01/29 07:12:40;;;;;;;11.82;5.45;;;3.00;99.90;;;;;;5074006;28;20391;-63
2022/01/29 07:15:07;;;;;;;9.10;4.22;;;3.10;99.90;;;;;;5056030;28;20074;-62
2022/01/29 07:17:33;;;;;;;5.90;3.53;;;3.20;99.90;;;;;;5073802;28;20028;-62
2022/01/29 07:19:59;;;;;;;10.50;4.68;;;3.30;99.90;;;;;;5055761;28;20120;-65
2022/01/29 07:22:25;;;;;;;8.35;4.22;;;3.30;99.90;;;;;;5073776;28;20103;-63
2022/01/29 07:24:51;;;;;;;10.00;4.65;;;3.40;99.90;;;;;;5055591;28;20023;-63
2022/01/29 07:27:17;;;;;;;10.60;4.43;;;3.40;99.90;;;;;;5055433;28;20020;-63
2022/01/29 07:29:42;;;;;;;11.43;4.60;;;3.40;99.90;;;;;;5073873;28;20025;-63
2022/01/29 07:32:09;;;;;;;7.57;4.93;;;3.40;99.90;;;;;;5073961;28;20033;-63
2022/01/29 07:34:34;;;;;;;11.40;4.75;;;3.50;99.90;;;;;;5073487;28;20474;-63
2022/01/29 07:37:00;;;;;;;9.07;4.80;;;3.50;99.90;;;;;;5055643;28;20017;-63
2022/01/29 07:39:28;;;;;;;9.32;3.90;;;3.50;99.90;;;;;;5073470;28;20016;-63
2022/01/29 07:41:54;;;;;;;10.30;4.18;;;3.50;99.90;;;;;;5073546;28;20037;-65
2022/01/29 07:44:21;;;;;;;11.52;4.45;;;3.60;99.90;;;;;;5073284;28;20448;-65
2022/01/29 07:46:47;;;;;;;7.78;4.15;;;3.60;99.90;;;;;;5073641;28;20029;-65
2022/01/29 07:49:12;;;;;;;7.65;4.22;;;3.70;99.90;;;;;;5055403;28;20021;-64
2022/01/29 07:51:39;;;;;;;8.48;4.82;;;3.60;99.90;;;;;;5073695;28;20024;-63
2022/01/29 07:54:05;;;;;;;7.53;3.72;;;3.70;99.90;;;;;;5073429;28;20502;-63
2022/01/29 07:56:31;;;;;;;8.02;3.63;;;3.80;99.90;;;;;;5073438;28;20078;-63
2022/01/29 07:58:57;;;;;;;9.52;4.10;;;3.80;99.90;;;;;;5055687;28;20025;-63
2022/01/29 08:01:23;;;;;;;6.97;3.88;;;3.80;99.90;;;;;;5073328;28;20078;-63
2022/01/29 08:03:50;;;;;;;10.00;4.15;;;3.80;99.90;;;;;;5073135;28;20025;-63
2022/01/29 08:06:17;;;;;;;9.48;3.70;;;3.90;99.90;;;;;;5054977;28;20025;-64
2022/01/29 08:08:43;;;;;;;8.02;3.67;;;3.90;99.90;;;;;;5056394;28;20025;-64
2022/01/29 08:11:10;;;;;;;8.75;3.90;;;3.90;99.90;;;;;;5054462;28;20534;-64
2022/01/29 08:13:38;;;;;;;5.95;3.60;;;4.00;99.90;;;;;;5048018;28;20040;-64
2022/01/29 08:16:05;;;;;;;5.93;3.25;;;4.10;99.90;;;;;;5071104;28;20036;-64
2022/01/29 08:18:30;;;;;;;8.45;3.75;;;4.10;99.90;;;;;;5038201;28;20032;-64
2022/01/29 08:20:57;;;;;;;6.15;3.38;;;4.20;99.90;;;;;;5073567;28;20384;-64
2022/01/29 08:23:23;;;;;;;5.22;3.15;;;4.30;99.90;;;;;;5076769;28;20052;-65
2022/01/29 08:25:48;;;;;;;5.57;3.20;;;4.30;99.90;;;;;;5077047;28;20044;-71
2022/01/29 08:28:14;;;;;;;8.02;3.13;;;4.60;99.90;;;;;;5058413;28;20025;-65
2022/01/29 08:30:40;;;;;;;6.47;3.45;;;4.80;99.90;;;;;;5076674;28;20067;-63
2022/01/29 08:33:06;;;;;;;12.13;2.92;;;4.70;99.90;;;;;;5077384;28;20028;-67
2022/01/29 08:35:33;;;;;;;10.18;3.63;;;4.70;99.90;;;;;;5076666;28;20016;-66
2022/01/29 08:37:59;;;;;;;5.63;3.10;;;4.70;99.90;;;;;;5076528;28;20021;-66
2022/01/29 08:40:25;;;;;;;6.55;2.97;;;4.80;99.90;;;;;;5076386;28;20391;-67
2022/01/29 08:42:51;;;;;;;6.63;3.00;;;4.90;99.90;;;;;;5058548;28;20115;-70
2022/01/29 08:45:17;;;;;;;6.50;3.38;;;4.90;99.90;;;;;;5058152;28;20111;-72
2022/01/29 08:47:43;;;;;;;13.02;3.03;;;5.00;99.90;;;;;;5076439;28;20116;-71
2022/01/29 08:50:10;;;;;;;6.15;2.95;;;5.20;99.90;;;;;;5076627;28;20032;-68
2022/01/29 08:52:37;;;;;;;9.52;3.55;;;5.20;99.90;;;;;;5076297;28;20024;-76
2022/01/29 08:55:05;;;;;;;6.55;3.55;;;5.20;99.90;;;;;;5076313;28;20025;-70
2022/01/29 08:57:30;;;;;;;6.35;3.08;;;5.20;99.90;;;;;;5076203;28;20059;-64
2022/01/29 08:59:56;;;;;;;8.85;2.95;;;5.20;99.90;;;;;;5057961;28;20064;-64
2022/01/29 09:02:22;;;;;;;5.20;3.22;;;5.40;99.90;;;;;;5058151;28;20025;-63
2022/01/29 09:04:48;;;;;;;5.75;2.53;;;5.50;99.90;;;;;;5076002;28;20056;-67
2022/01/29 09:07:14;;;;;;;10.98;3.00;;;5.40;99.90;;;;;;5076121;28;20055;-67
2022/01/29 09:09:43;;;;;;;5.50;2.45;;;5.40;99.90;;;;;;5075461;28;20166;-69
2022/01/29 09:12:10;;;;;;;7.97;3.22;;;5.40;99.90;;;;;;5057937;28;20111;-66
2022/01/29 09:14:36;;;;;;;5.72;2.80;;;5.30;99.90;;;;;;5075609;28;20427;-66
2022/01/29 09:17:02;;;;;;;6.57;3.25;;;5.20;99.90;;;;;;5075854;28;20021;-67
2022/01/29 09:19:27;;;;;;;7.65;2.85;;;5.20;99.90;;;;;;5075438;28;20029;-62
2022/01/29 09:21:53;;;;;;;5.80;2.50;;;5.20;99.90;;;;;;5057242;28;20078;-67
2022/01/29 09:24:18;;;;;;;4.57;2.67;;;5.20;99.90;;;;;;5057728;28;20028;-68
2022/01/29 09:26:44;;;;;;;6.32;2.25;;;5.20;99.90;;;;;;5057598;28;20119;-67
2022/01/29 09:29:10;;;;;;;6.10;2.65;;;5.30;99.90;;;;;;5057145;28;20116;-67
2022/01/29 09:31:35;;;;;;;5.03;2.60;;;5.40;99.90;;;;;;5057499;28;20029;-63
2022/01/29 09:34:02;;;;;;;6.03;2.22;;;5.40;99.90;;;;;;5075111;28;20020;-71
2022/01/29 09:36:28;;;;;;;7.03;2.78;;;5.40;99.90;;;;;;5075492;28;20116;-63
2022/01/29 09:38:54;;;;;;;8.02;2.30;;;5.50;99.90;;;;;;5075045;28;20100;-63
2022/01/29 09:41:24;;;;;;;6.25;2.85;;;5.70;99.90;;;;;;5075338;28;20036;-63
2022/01/29 09:43:55;;;;;;;5.15;2.20;;;5.80;99.90;;;;;;5075444;28;20028;-63
2022/01/29 09:46:21;;;;;;;4.00;2.15;;;6.00;99.90;;;;;;5075323;28;20016;-63
2022/01/29 09:48:47;;;;;;;3.60;1.98;;;6.00;99.90;;;;;;5075150;28;20103;-63
2022/01/29 09:51:15;;;;;;;4.05;1.77;;;6.10;99.90;;;;;;5057202;28;20060;-63
2022/01/29 09:53:43;;;;;;;3.90;2.13;;;6.10;99.90;;;;;;5075000;28;20025;-63
2022/01/29 09:56:13;;;;;;;5.47;1.75;;;6.20;99.90;;;;;;5057111;28;20134;-62
2022/01/29 09:58:40;;;;;;;3.42;2.08;;;6.30;99.90;;;;;;5074673;28;20407;-62
2022/01/29 10:01:06;;;;;;;5.07;1.85;;;6.40;99.90;;;;;;5056857;28;20039;-63
2022/01/29 10:03:32;;;;;;;4.47;1.90;;;6.60;99.90;;;;;;5075022;28;20028;-63
2022/01/29 10:05:58;;;;;;;8.35;3.28;;;6.70;99.90;;;;;;5056550;28;20119;-64
2022/01/29 10:08:24;;;;;;;4.47;2.00;;;6.70;99.90;;;;;;5056815;28;20109;-63
2022/01/29 10:10:51;;;;;;;3.03;1.95;;;6.50;99.90;;;;;;5074252;28;20044;-63
2022/01/29 10:13:28;;;;;;;3.38;1.23;;;6.50;99.90;;;;;;5071834;28;20028;-64
2022/01/29 10:16:09;;;;;;;2.78;1.35;;;6.50;99.90;;;;;;5054961;28;20048;-63
2022/01/29 10:18:42;;;;;;;2.55;1.60;;;6.50;99.90;;;;;;5036635;28;20117;-63
2022/01/29 10:21:10;;;;;;;2.30;1.40;;;6.60;99.90;;;;;;5054303;28;20366;-63
2022/01/29 10:23:36;;;;;;;3.33;1.30;;;6.80;99.90;;;;;;5036264;28;20056;-63
2022/01/29 10:26:04;;;;;;;2.80;1.27;;;6.90;99.90;;;;;;5054463;28;20118;-64
2022/01/29 10:28:31;;;;;;;3.88;1.55;;;6.90;99.90;;;;;;5036749;28;20036;-63
2022/01/29 10:30:59;;;;;;;3.17;1.33;;;6.80;99.90;;;;;;5053994;28;20479;-64
2022/01/29 10:33:25;;;;;;;5.82;1.40;;;6.80;99.90;;;;;;5035696;28;20469;-64
2022/01/29 10:35:53;;;;;;;3.35;1.38;;;6.80;99.90;;;;;;5054291;28;20036;-63
2022/01/29 10:38:24;;;;;;;6.82;1.65;;;6.90;99.90;;;;;;5036460;28;20052;-63
2022/01/29 10:41:12;;;;;;;2.28;1.42;;;7.10;99.90;;;;;;5036637;28;20044;-63
2022/01/29 10:44:13;;;;;;;2.47;1.73;;;7.10;99.90;;;;;;5054132;28;20454;-64
2022/01/29 10:46:52;;;;;;;3.15;1.75;;;7.00;99.90;;;;;;5053842;28;20108;-64
2022/01/29 10:49:33;;;;;;;2.67;1.60;;;7.00;99.90;;;;;;5036615;28;20056;-63
2022/01/29 10:52:10;;;;;;;3.03;1.70;;;6.80;99.90;;;;;;5054128;28;20354;-64
2022/01/29 10:54:38;;;;;;;3.47;1.98;;;6.70;99.90;;;;;;5053895;28;20032;-63
2022/01/29 10:57:09;;;;;;;3.28;2.08;;;6.70;99.90;;;;;;5053892;28;20044;-63
2022/01/29 10:59:47;;;;;;;1.65;1.13;;;6.70;99.90;;;;;;5053804;28;20104;-63
2022/01/29 11:02:13;;;;;;;3.78;1.60;;;6.80;99.90;;;;;;5053892;28;20045;-63
2022/01/29 11:07:28;;;;;;;3.60;1.73;;;6.90;99.90;;;;;;5053938;28;20389;-63
2022/01/29 11:09:54;;;;;;;2.92;1.70;;;7.00;99.90;;;;;;5050180;28;20052;-63
2022/01/29 11:12:21;;;;;;;5.22;2.20;;;7.00;99.90;;;;;;5072470;28;20354;-64
2022/01/29 11:14:48;;;;;;;4.57;1.88;;;6.90;99.90;;;;;;5073698;28;20124;-64
2022/01/29 11:17:15;;;;;;;5.32;2.03;;;6.80;99.90;;;;;;5073829;28;20077;-64
2022/01/29 11:19:41;;;;;;;2.28;1.50;;;6.80;99.90;;;;;;5072298;28;20526;-63
2022/01/29 11:22:08;;;;;;;2.28;1.65;;;6.70;99.90;;;;;;5072563;28;20081;-64
2022/01/29 11:24:36;;;;;;;2.92;2.25;;;6.50;99.90;;;;;;5072454;28;20476;-64
2022/01/29 11:27:03;;;;;;;5.57;1.88;;;6.40;99.90;;;;;;5072707;28;20020;-64
2022/01/29 11:29:36;;;;;;;6.88;1.55;;;6.20;99.90;;;;;;5074015;28;20095;-64
2022/01/29 11:32:20;;;;;;;4.85;1.70;;;6.00;99.90;;;;;;5072718;28;20025;-63
2022/01/29 11:35:05;;;;;;;3.65;1.67;;;5.80;99.90;;;;;;5073762;28;20033;-64
2022/01/29 11:37:54;;;;;;;3.70;1.98;;;5.60;99.90;;;;;;5073620;28;20519;-63
2022/01/29 11:40:32;;;;;;;3.17;1.65;;;5.40;99.90;;;;;;5074021;28;20055;-64
2022/01/29 11:43:09;;;;;;;3.13;1.50;;;5.30;99.90;;;;;;5073463;28;20028;-64
2022/01/29 11:45:45;;;;;;;5.95;2.13;;;5.10;99.90;;;;;;5074371;28;20036;-62
2022/01/29 11:48:27;;;;;;;6.65;2.78;;;4.90;99.90;;;;;;5076358;28;20024;-63
2022/01/29 11:51:02;;;;;;;2.90;1.92;;;4.70;99.90;;;;;;5077702;28;20081;-63
2022/01/29 11:53:50;;;;;;;5.25;2.08;;;4.70;99.90;;;;;;5077414;28;20031;-62
2022/01/29 11:56:44;;;;;;;5.28;2.22;;;4.50;99.90;;;;;;5076866;28;20025;-63
2022/01/29 11:59:27;;;;;;;7.25;2.30;;;4.40;99.90;;;;;;5076513;28;20063;-63
2022/01/29 12:02:01;;;;;;;2.95;1.98;;;4.30;99.90;;;;;;5077639;28;20123;-62
2022/01/29 12:04:48;;;;;;;5.78;2.13;;;4.20;99.90;;;;;;5076264;28;20025;-63
2022/01/29 12:09:48;;;;;;;4.93;2.22;;;4.10;99.90;;;;;;5069153;28;20140;-63
2022/01/29 12:12:25;;;;;;;4.75;2.60;;;4.00;99.90;;;;;;5056941;28;20036;-62
2022/01/29 12:15:16;;;;;;;5.15;2.40;;;4.00;99.90;;;;;;5038673;28;20120;-63
2022/01/29 12:17:50;;;;;;;5.93;2.28;;;3.90;99.90;;;;;;5030510;28;20495;-63
2022/01/29 12:20:17;;;;;;;7.88;2.20;;;3.80;99.90;;;;;;5038886;28;20029;-63
2022/01/29 12:22:44;;;;;;;3.25;2.00;;;3.80;99.90;;;;;;5056648;28;20569;-63
2022/01/29 12:25:12;;;;;;;3.70;1.50;;;3.80;99.90;;;;;;5038927;28;20032;-64
2022/01/29 12:27:51;;;;;;;1.63;1.40;;;3.70;99.90;;;;;;5056760;28;20053;-63
2022/01/29 12:30:23;;;;;;;3.42;2.40;;;3.70;99.90;;;;;;5056683;28;20032;-64
2022/01/29 12:33:01;;;;;;;2.53;1.60;;;3.70;99.90;;;;;;5056471;28;20524;-64
2022/01/29 12:35:43;;;;;;;5.80;2.10;;;3.70;99.90;;;;;;5056731;28;20029;-64
2022/01/29 12:38:17;;;;;;;1.95;1.17;;;3.70;99.90;;;;;;5038409;28;20029;-64
2022/01/29 12:41:02;;;;;;;2.25;1.25;;;3.70;99.90;;;;;;5038586;28;20557;-64
2022/01/29 12:43:29;;;;;;;2.28;1.35;;;3.70;99.90;;;;;;5056467;28;20055;-63
2022/01/29 12:46:07;;;;;;;3.28;1.35;;;3.70;99.90;;;;;;5038598;28;20544;-63
2022/01/29 12:48:33;;;;;;;3.45;1.40;;;3.90;99.90;;;;;;5038431;28;20021;-63
2022/01/29 12:51:10;;;;;;;6.57;1.27;;;3.70;99.90;;;;;;5055948;28;20117;-64
2022/01/29 12:53:37;;;;;;;2.33;1.33;;;3.80;99.90;;;;;;5038400;28;20104;-63
2022/01/29 12:56:05;;;;;;;2.40;1.00;;;3.80;99.90;;;;;;5056264;28;20025;-64
2022/01/29 12:58:34;;;;;;;1.90;1.08;;;3.80;99.90;;;;;;5055744;28;20029;-64
2022/01/29 13:01:08;;;;;;;1.33;1.13;;;3.80;99.90;;;;;;5038122;28;20132;-65
2022/01/29 13:03:35;;;;;;;1.30;1.10;;;3.80;99.90;;;;;;5038602;28;20078;-64
2022/01/29 13:06:05;;;;;;;1.40;0.88;;;3.80;99.90;;;;;;5056069;28;20021;-64
2022/01/29 13:08:31;;;;;;;3.08;0.98;;;3.90;99.90;;;;;;5056034;28;20384;-64
2022/01/29 13:10:57;;;;;;;2.15;1.20;;;3.90;99.90;;;;;;5069648;28;20063;-64
2022/01/29 13:13:30;;;;;;;2.10;0.98;;;3.90;99.90;;;;;;5075610;28;20032;-64
2022/01/29 13:15:56;;;;;;;0.98;0.82;;;3.90;99.90;;;;;;5075896;28;20418;-64
2022/01/29 13:18:22;;;;;;;1.85;1.33;;;3.90;99.90;;;;;;5074609;28;20024;-64
2022/01/29 13:20:49;;;;;;;2.90;1.23;;;3.90;99.90;;;;;;5075708;28;20150;-64
2022/01/29 13:23:14;;;;;;;1.00;0.80;;;3.90;99.90;;;;;;5076048;28;20032;-64